Time;durP1;ratioP1;P1;durP2;ratioP2;P2;SDS_P1;SDS_P2;PMS_P1;PMS_P2;Temp;Humidity;BMP_temperature;BMP_pressure;BME280_temperature;BME280_humidity;BME280_pressure;Samples;Min_cycle;Max_cycle;Signal;HPM_P1;HPM_P2
2022/09/13 00:00:40;;;;;;;8.43;7.63;;;;;;;16.03;58.56;99073.88;5032851;28;20108;-71
2022/09/13 00:03:06;;;;;;;9.40;7.38;;;;;;;16.09;58.58;99069.53;5033110;28;20408;-71
2022/09/13 00:05:33;;;;;;;7.55;6.85;;;;;;;16.00;58.87;99069.00;5033142;28;20060;-71
2022/09/13 00:07:59;;;;;;;7.88;6.63;;;;;;;16.05;58.91;99071.50;5032826;28;20037;-71
2022/09/13 00:10:25;;;;;;;7.78;7.07;;;;;;;15.86;59.28;99064.75;5033232;28;20055;-71
2022/09/13 00:12:50;;;;;;;8.98;7.53;;;;;;;15.83;59.67;99067.53;5043609;28;20025;-71
2022/09/13 00:15:16;;;;;;;7.57;6.88;;;;;;;15.71;60.41;99062.94;5053143;28;20021;-71
2022/09/13 00:17:42;;;;;;;8.32;7.10;;;;;;;15.78;60.18;99062.22;5052689;28;20027;-71
2022/09/13 00:20:08;;;;;;;6.97;6.38;;;;;;;15.71;60.60;99063.72;5052863;28;20093;-71
2022/09/13 00:22:34;;;;;;;10.48;6.30;;;;;;;15.72;60.66;99058.91;5052918;28;20499;-71
2022/09/13 00:24:59;;;;;;;12.48;7.10;;;;;;;15.72;60.63;99051.25;5051255;28;20027;-71
2022/09/13 00:27:25;;;;;;;7.50;6.80;;;;;;;15.68;60.76;99056.03;5049729;28;20032;-71
2022/09/13 00:29:51;;;;;;;7.32;5.82;;;;;;;15.67;60.99;99060.06;5052557;28;20020;-71
2022/09/13 00:32:16;;;;;;;9.20;6.88;;;;;;;15.78;60.95;99054.56;5051547;28;20024;-71
2022/09/13 00:34:42;;;;;;;7.03;6.32;;;;;;;15.78;60.76;99045.31;5052484;28;20024;-72
2022/09/13 00:37:08;;;;;;;7.95;6.65;;;;;;;15.81;60.60;99055.81;5052518;28;20035;-71
2022/09/13 00:39:34;;;;;;;6.45;5.85;;;;;;;15.76;60.79;99059.78;5052441;28;20025;-71
2022/09/13 00:41:59;;;;;;;6.47;5.75;;;;;;;15.78;60.75;99045.31;5035385;28;20022;-71
2022/09/13 00:44:43;;;;;;;6.20;5.68;;;;;;;15.92;60.06;99045.53;5032382;28;20033;-72
2022/09/13 00:47:11;;;;;;;7.30;6.18;;;;;;;15.96;60.39;99057.66;5032504;28;20048;-71
2022/09/13 00:49:39;;;;;;;5.97;5.47;;;;;;;15.92;60.57;99050.34;5032554;28;20033;-71
2022/09/13 00:52:09;;;;;;;6.97;5.88;;;;;;;15.86;60.56;99058.28;5032390;28;20036;-71
2022/09/13 00:54:41;;;;;;;7.63;6.68;;;;;;;15.73;60.61;99047.25;5032116;28;20552;-72
2022/09/13 00:57:10;;;;;;;7.80;5.47;;;;;;;15.68;60.80;99035.47;5031818;28;20030;-71
2022/09/13 00:59:52;;;;;;;8.27;5.78;;;;;;;15.73;61.05;99040.81;5032108;28;20021;-71
2022/09/13 01:02:19;;;;;;;8.48;6.20;;;;;;;15.72;60.59;99045.63;5040133;28;20024;-71
2022/09/13 01:04:45;;;;;;;6.22;5.63;;;;;;;15.64;61.26;99038.28;5051905;28;20020;-71
2022/09/13 01:07:14;;;;;;;6.20;5.60;;;;;;;15.61;60.89;99033.38;5052237;28;20093;-71
2022/09/13 01:09:43;;;;;;;7.88;5.57;;;;;;;15.57;61.33;99035.34;5051884;28;20032;-71
2022/09/13 01:12:30;;;;;;;6.70;6.10;;;;;;;15.56;60.88;99037.31;5051982;28;20020;-71
2022/09/13 01:14:59;;;;;;;6.50;5.90;;;;;;;15.61;61.11;99036.19;5051874;28;20021;-71
2022/09/13 01:17:28;;;;;;;8.13;6.30;;;;;;;15.53;60.64;99024.00;5044747;28;20104;-71
2022/09/13 01:19:54;;;;;;;10.57;6.13;;;;;;;15.56;60.69;99026.06;5051707;28;20492;-71
2022/09/13 01:22:22;;;;;;;8.98;6.15;;;;;;;15.57;60.44;99029.69;5041974;28;20026;-71
2022/09/13 01:24:58;;;;;;;6.60;6.00;;;;;;;15.58;60.40;99034.97;5031723;28;20040;-71
2022/09/13 01:27:33;;;;;;;6.60;6.05;;;;;;;15.68;59.83;99027.03;5031756;28;20116;-71
2022/09/13 01:30:19;;;;;;;10.80;6.25;;;;;;;15.82;59.21;99023.59;5031591;28;20037;-71
2022/09/13 01:32:44;;;;;;;7.85;5.75;;;;;;;16.03;58.42;99025.94;5030831;28;20112;-71
2022/09/13 01:35:42;;;;;;;5.68;5.20;;;;;;;16.15;58.04;99027.69;5046306;28;20469;-71
2022/09/13 01:38:29;;;;;;;6.38;5.78;;;;;;;16.05;58.05;99028.38;5050121;28;20021;-71
2022/09/13 01:41:26;;;;;;;6.13;5.63;;;;;;;15.93;58.73;99026.63;5051317;28;20021;-71
2022/09/13 01:43:56;;;;;;;7.43;6.15;;;;;;;15.80;58.86;99023.19;5050403;28;20041;-71
2022/09/13 01:46:31;;;;;;;7.22;5.93;;;;;;;15.70;59.35;99019.81;5051350;28;20033;-71
2022/09/13 01:49:11;;;;;;;6.57;5.97;;;;;;;15.61;59.81;99018.47;5044233;28;20400;-71
2022/09/13 01:52:16;;;;;;;6.97;6.03;;;;;;;15.61;60.02;99012.84;5031545;28;20021;-71
2022/09/13 01:55:22;;;;;;;8.52;6.63;;;;;;;15.61;60.00;99018.47;5030823;28;20072;-71
2022/09/13 01:58:16;;;;;;;9.30;6.25;;;;;;;15.45;59.89;99011.00;5031337;28;20022;-71
2022/09/13 02:01:09;;;;;;;6.78;5.68;;;;;;;15.43;60.44;99016.19;5035675;28;20155;-71
2022/09/13 02:03:52;;;;;;;6.72;5.95;;;;;;;15.45;60.33;99016.66;5033712;28;20025;-71
2022/09/13 02:06:22;;;;;;;8.00;7.03;;;;;;;15.26;61.29;99015.53;5050138;28;20028;-71
2022/09/13 02:08:59;;;;;;;7.78;6.15;;;;;;;15.27;60.89;99022.81;5051146;28;20087;-71
2022/09/13 02:11:25;;;;;;;8.93;6.35;;;;;;;15.35;61.08;99029.38;5050879;28;20074;-71
2022/09/13 02:14:04;;;;;;;8.45;6.78;;;;;;;15.47;60.76;99013.44;5052537;28;20021;-71
2022/09/13 02:16:38;;;;;;;7.10;6.40;;;;;;;15.56;60.11;99017.59;5053480;28;20090;-71
2022/09/13 02:19:14;;;;;;;7.57;6.05;;;;;;;15.47;60.03;99016.25;5055224;28;20491;-71
2022/09/13 02:21:43;;;;;;;9.80;6.90;;;;;;;15.38;60.01;99022.16;5054896;28;20025;-71
2022/09/13 02:24:40;;;;;;;8.57;6.25;;;;;;;15.34;60.03;99018.50;5034619;28;20044;-71
2022/09/13 02:27:15;;;;;;;9.75;6.03;;;;;;;15.22;60.37;99020.31;5035049;28;20041;-71
2022/09/13 02:29:44;;;;;;;12.20;6.28;;;;;;;15.24;60.17;99029.19;5035226;28;20048;-71
2022/09/13 02:32:17;;;;;;;6.45;5.78;;;;;;;15.25;59.94;99024.38;5054803;28;20025;-71
2022/09/13 02:35:20;;;;;;;8.27;6.40;;;;;;;15.20;60.03;99019.84;5054878;28;20020;-71
2022/09/13 02:37:50;;;;;;;6.97;6.28;;;;;;;15.09;60.51;99011.25;5053744;28;20075;-71
2022/09/13 02:40:20;;;;;;;;;;;;;;;15.04;60.61;99017.22;5055131;28;20024;-71
2022/09/13 02:43:04;;;;;;;8.65;6.88;;;;;;;14.93;61.08;99024.66;5044137;28;20003;-71
2022/09/13 02:45:39;;;;;;;7.90;7.15;;;;;;;14.87;60.97;99024.16;5037681;28;20092;-71
2022/09/13 02:48:21;;;;;;;7.25;6.55;;;;;;;14.87;61.12;99021.34;5054600;28;20160;-71
2022/09/13 02:51:18;;;;;;;6.43;5.80;;;;;;;14.87;61.25;99029.78;5053557;28;20411;-71
2022/09/13 02:53:52;;;;;;;8.00;6.72;;;;;;;14.88;61.52;99026.56;5053727;28;20041;-71
2022/09/13 02:56:27;;;;;;;7.93;6.72;;;;;;;14.90;61.29;99026.22;5052855;28;20338;-71
2022/09/13 02:59:20;;;;;;;7.10;6.43;;;;;;;14.84;61.94;99022.06;5054421;28;20071;-71
2022/09/13 03:02:11;;;;;;;6.55;5.95;;;;;;;14.67;62.10;99015.72;5051834;28;20106;-71
2022/09/13 03:04:37;;;;;;;12.82;7.60;;;;;;;14.64;61.88;99019.28;5050401;28;20504;-71
2022/09/13 03:07:05;;;;;;;9.90;6.55;;;;;;;14.64;61.75;99016.47;5034186;28;20025;-71
2022/09/13 03:09:31;;;;;;;7.03;6.07;;;;;;;14.69;61.99;99018.97;5034354;28;20462;-71
2022/09/13 03:12:21;;;;;;;6.97;6.28;;;;;;;14.66;61.85;99014.09;5050103;28;20051;-71
2022/09/13 03:15:12;;;;;;;6.85;6.18;;;;;;;14.72;61.31;99021.09;5053329;28;20033;-71
2022/09/13 03:17:47;;;;;;;17.23;7.28;;;;;;;14.74;60.95;99027.16;5051631;28;20123;-71
2022/09/13 03:20:30;;;;;;;11.82;6.28;;;;;;;14.78;61.00;99023.59;5053936;28;20036;-71
2022/09/13 03:23:04;;;;;;;11.18;6.13;;;;;;;14.87;60.86;99024.16;5054043;28;20108;-71
2022/09/13 03:25:39;;;;;;;7.60;6.80;;;;;;;14.71;60.87;99025.03;5049860;28;20075;-71
2022/09/13 03:28:35;;;;;;;6.97;6.00;;;;;;;14.66;61.07;99011.28;5054012;28;20028;-71
2022/09/13 03:31:20;;;;;;;7.82;7.05;;;;;;;14.73;61.39;99019.91;5037673;28;20032;-72
2022/09/13 03:33:58;;;;;;;9.27;6.15;;;;;;;14.64;61.79;99019.28;5033965;28;20022;-71
2022/09/13 03:36:26;;;;;;;10.32;6.65;;;;;;;14.56;62.53;99031.59;5039354;28;20032;-71
2022/09/13 03:39:10;;;;;;;6.55;5.95;;;;;;;14.58;62.50;99029.22;5052199;28;20071;-72
2022/09/13 03:41:41;;;;;;;7.95;6.47;;;;;;;14.53;62.53;99021.88;5033695;28;20584;-71
2022/09/13 03:44:11;;;;;;;9.57;6.97;;;;;;;14.50;63.39;99031.09;5032214;28;20130;-71
2022/09/13 03:46:43;;;;;;;10.90;7.50;;;;;;;14.50;63.18;99021.84;5035334;28;20037;-71
2022/09/13 03:49:14;;;;;;;11.30;6.40;;;;;;;14.57;63.31;99036.03;5033499;28;20025;-71
2022/09/13 03:51:41;;;;;;;8.02;7.22;;;;;;;14.48;63.33;99030.66;5045406;28;20061;-71
2022/09/13 03:54:13;;;;;;;8.23;6.22;;;;;;;14.49;63.72;99039.91;5052575;28;20506;-71
2022/09/13 03:56:39;;;;;;;7.75;6.53;;;;;;;14.39;64.08;99035.69;5051318;28;20506;-71
2022/09/13 03:59:05;;;;;;;8.18;6.38;;;;;;;14.46;63.78;99045.06;5053308;28;20109;-71
2022/09/13 04:01:30;;;;;;;7.95;6.40;;;;;;;14.42;63.93;99032.94;5051859;28;20025;-71
2022/09/13 04:03:56;;;;;;;6.70;6.10;;;;;;;14.46;63.46;99039.44;5053272;28;20039;-71
2022/09/13 04:06:21;;;;;;;9.05;6.43;;;;;;;14.57;63.17;99028.41;5051121;28;20056;-71
2022/09/13 04:08:47;;;;;;;6.63;6.00;;;;;;;14.86;63.06;99037.41;5053130;28;20029;-71
2022/09/13 04:11:12;;;;;;;9.07;6.07;;;;;;;15.05;62.75;99032.91;5051195;28;20503;-71
2022/09/13 04:13:38;;;;;;;14.77;6.40;;;;;;;15.10;62.53;99045.88;5051606;28;20060;-71
2022/09/13 04:16:05;;;;;;;12.48;6.55;;;;;;;15.20;62.40;99045.22;5052969;28;20021;-71
2022/09/13 04:18:32;;;;;;;12.07;6.53;;;;;;;15.35;62.28;99051.09;5043019;28;20029;-71
2022/09/13 04:20:59;;;;;;;7.50;6.40;;;;;;;15.45;61.11;99033.56;5032496;28;20109;-71
2022/09/13 04:23:26;;;;;;;8.07;6.47;;;;;;;15.58;60.85;99043.44;5037819;28;20033;-71
2022/09/13 04:25:52;;;;;;;6.93;6.20;;;;;;;15.51;61.06;99034.06;5052668;28;20503;-72
2022/09/13 04:28:19;;;;;;;10.45;6.25;;;;;;;15.62;61.14;99049.09;5046822;28;20032;-71
2022/09/13 04:30:45;;;;;;;7.95;7.07;;;;;;;15.15;61.70;99037.09;5040133;28;20031;-71
2022/09/13 04:33:11;;;;;;;7.97;6.32;;;;;;;15.30;61.52;99044.59;5042465;28;20035;-71
2022/09/13 04:35:38;;;;;;;13.07;7.05;;;;;;;15.60;60.93;99050.69;5032733;28;20096;-71
2022/09/13 04:38:04;;;;;;;7.45;6.65;;;;;;;15.39;61.03;99046.34;5040488;28;20415;-71
2022/09/13 04:40:29;;;;;;;8.00;7.00;;;;;;;15.36;61.82;99058.38;5045563;28;20041;-71
2022/09/13 04:42:55;;;;;;;12.55;7.55;;;;;;;15.06;62.29;99062.69;5040242;28;20048;-73
2022/09/13 04:45:21;;;;;;;15.02;7.15;;;;;;;15.10;62.67;99057.94;5046244;28;20032;-71
2022/09/13 04:47:55;;;;;;;23.83;7.97;;;;;;;15.02;63.38;99067.44;5033901;28;20056;-71
2022/09/13 04:50:23;;;;;;;14.77;7.72;;;;;;;15.09;63.19;99063.97;5032874;28;20116;-73
2022/09/13 04:52:49;;;;;;;13.02;8.48;;;;;;;14.99;63.64;99065.38;5034285;28;20061;-71
2022/09/13 04:55:14;;;;;;;14.77;8.48;;;;;;;15.23;63.64;99072.66;5035549;28;20116;-75
2022/09/13 04:57:40;;;;;;;14.35;7.47;;;;;;;15.22;63.43;99058.94;5047416;28;20090;-74
2022/09/13 05:00:07;;;;;;;27.02;8.57;;;;;;;15.34;63.18;99064.38;5042297;28;20055;-73
2022/09/13 05:02:33;;;;;;;13.23;8.13;;;;;;;15.30;63.08;99069.16;5032112;28;20140;-72
2022/09/13 05:04:58;;;;;;;11.85;6.90;;;;;;;15.37;63.30;99068.44;5031360;28;20116;-72
2022/09/13 05:07:24;;;;;;;12.35;6.30;;;;;;;15.47;63.42;99062.16;5040843;28;20029;-71
2022/09/13 05:09:49;;;;;;;13.63;7.45;;;;;;;15.61;63.12;99063.59;5052768;28;20025;-72
2022/09/13 05:12:14;;;;;;;12.40;7.75;;;;;;;15.82;63.04;99075.19;5039560;28;20483;-72
2022/09/13 05:14:40;;;;;;;9.50;6.30;;;;;;;15.90;62.10;99064.03;5033437;28;20107;-73
2022/09/13 05:17:06;;;;;;;11.02;7.32;;;;;;;16.12;61.39;99077.22;5031669;28;20113;-73
2022/09/13 05:19:31;;;;;;;9.43;6.78;;;;;;;16.27;60.30;99071.75;5031752;28;20057;-72
2022/09/13 05:21:57;;;;;;;15.10;7.45;;;;;;;16.47;59.26;99072.44;5031667;28;20112;-73
2022/09/13 05:24:22;;;;;;;20.48;7.18;;;;;;;16.56;58.58;99060.84;5031591;28;20029;-73
2022/09/13 05:26:48;;;;;;;40.50;9.13;;;;;;;16.63;58.72;99066.56;5047007;28;20021;-74
2022/09/13 05:29:13;;;;;;;10.65;7.43;;;;;;;16.75;58.76;99071.13;5049565;28;20074;-73
2022/09/13 05:31:41;;;;;;;12.02;7.43;;;;;;;16.82;58.16;99070.41;5038866;28;20029;-72
2022/09/13 05:34:09;;;;;;;12.65;7.10;;;;;;;16.87;57.47;99074.88;5031565;28;20414;-74
2022/09/13 05:36:35;;;;;;;11.35;6.82;;;;;;;16.89;57.97;99067.63;5047742;28;20158;-71
2022/09/13 05:39:01;;;;;;;20.15;7.70;;;;;;;16.94;57.92;99072.13;5051413;28;20021;-71
2022/09/13 05:41:27;;;;;;;9.43;6.63;;;;;;;17.08;57.37;99071.47;5044600;28;20047;-80
2022/09/13 05:43:52;;;;;;;10.57;6.53;;;;;;;17.12;57.32;99075.16;5048052;28;20049;-75
2022/09/13 05:46:19;;;;;;;12.75;7.85;;;;;;;17.15;57.93;99065.91;5036602;28;20090;-76
2022/09/13 05:48:46;;;;;;;9.02;7.07;;;;;;;17.40;56.46;99079.44;5038378;28;20029;-74
2022/09/13 05:51:21;;;;;;;15.45;7.57;;;;;;;17.52;56.00;99075.47;5030351;28;20125;-73
2022/09/13 05:53:52;;;;;;;24.27;8.18;;;;;;;17.58;56.31;99068.28;5038812;28;20473;-72
2022/09/13 05:56:23;;;;;;;7.80;6.65;;;;;;;17.72;55.77;99076.03;5031490;28;20464;-72
2022/09/13 05:58:50;;;;;;;14.27;7.30;;;;;;;17.75;55.69;99069.59;5031820;28;20085;-72
2022/09/13 06:01:22;;;;;;;14.95;6.95;;;;;;;17.82;55.20;99066.00;5028299;28;20484;-72
2022/09/13 06:03:51;;;;;;;11.80;6.97;;;;;;;17.92;55.63;99079.41;5028576;28;20032;-74
2022/09/13 06:06:17;;;;;;;9.90;6.60;;;;;;;18.00;54.79;99074.59;5031425;28;20040;-75
2022/09/13 06:08:43;;;;;;;9.52;6.45;;;;;;;18.07;54.83;99085.19;5034513;28;20026;-75
2022/09/13 06:11:11;;;;;;;7.95;6.68;;;;;;;18.22;54.68;99077.56;5040664;28;20036;-74
2022/09/13 06:13:37;;;;;;;8.18;6.47;;;;;;;18.28;54.39;99075.16;5047442;28;20384;-71
2022/09/13 06:16:06;;;;;;;10.68;6.30;;;;;;;18.16;53.53;99065.84;5031064;28;20076;-73
2022/09/13 06:18:32;;;;;;;9.30;6.35;;;;;;;18.35;53.86;99087.34;5043583;28;20033;-72
2022/09/13 06:21:07;;;;;;;8.82;6.65;;;;;;;18.42;53.67;99080.09;5036069;28;20031;-74
2022/09/13 06:23:33;;;;;;;9.07;6.55;;;;;;;18.36;53.62;99071.16;5045405;28;20021;-77
2022/09/13 06:26:07;;;;;;;5.78;5.25;;;;;;;18.49;53.14;99089.41;5042459;28;20079;-71
2022/09/13 06:28:33;;;;;;;12.65;5.72;;;;;;;18.67;52.55;99086.66;5036464;28;20044;-73
2022/09/13 06:31:03;;;;;;;10.27;5.95;;;;;;;18.69;52.40;99091.91;5036090;28;20579;-72
2022/09/13 06:33:28;;;;;;;6.22;4.90;;;;;;;18.69;51.86;99082.59;5040290;28;20026;-72
2022/09/13 06:35:54;;;;;;;6.65;5.10;;;;;;;18.74;52.33;99083.03;5048732;28;20032;-72
2022/09/13 06:38:19;;;;;;;8.05;4.80;;;;;;;18.94;52.22;99091.19;5047230;28;20029;-72
2022/09/13 06:40:45;;;;;;;6.38;5.03;;;;;;;19.01;51.91;99091.22;5033946;28;20030;-74
2022/09/13 06:43:10;;;;;;;6.40;4.85;;;;;;;18.86;51.71;99081.84;5030733;28;20029;-73
2022/09/13 06:45:36;;;;;;;8.40;5.15;;;;;;;19.13;51.88;99089.22;5040214;28;20419;-72
2022/09/13 06:48:02;;;;;;;8.25;4.68;;;;;;;19.21;51.37;99080.31;5032893;28;20026;-72
2022/09/13 06:50:28;;;;;;;9.65;7.00;;;;;;;19.38;51.54;99080.72;5032855;28;20506;-73
2022/09/13 06:52:55;;;;;;;12.45;5.28;;;;;;;19.52;50.90;99088.44;5035465;28;20064;-73
2022/09/13 06:55:21;;;;;;;11.15;5.78;;;;;;;19.58;51.14;99083.94;5034172;28;20445;-74
2022/09/13 06:57:46;;;;;;;4.00;3.60;;;;;;;19.42;50.08;99077.91;5037425;28;20091;-73
2022/09/13 07:00:13;;;;;;;11.48;4.28;;;;;;;19.53;50.26;99092.06;5041446;28;20400;-72
2022/09/13 07:02:38;;;;;;;14.13;5.68;;;;;;;19.70;49.91;99094.09;5045977;28;20111;-74
2022/09/13 07:05:04;;;;;;;4.45;3.85;;;;;;;19.73;48.85;99093.28;5042803;28;20026;-75
2022/09/13 07:07:29;;;;;;;12.30;4.40;;;;;;;20.00;49.09;99100.56;5034930;28;20036;-75
2022/09/13 07:09:55;;;;;;;3.65;3.30;;;;;;;19.94;47.99;99102.19;5047358;28;20021;-77
2022/09/13 07:12:21;;;;;;;4.80;3.25;;;;;;;19.72;47.54;99090.84;5042019;28;20036;-77
2022/09/13 07:14:46;;;;;;;8.55;3.65;;;;;;;19.68;48.22;99093.69;5033854;28;20028;-75
2022/09/13 07:17:11;;;;;;;4.63;3.83;;;;;;;19.71;48.88;99097.72;5034401;28;20025;-73
2022/09/13 07:19:37;;;;;;;6.55;3.15;;;;;;;19.46;47.35;99093.69;5033835;28;20021;-77
2022/09/13 07:22:03;;;;;;;6.32;3.70;;;;;;;19.29;48.39;99095.31;5038035;28;20302;-75
2022/09/13 07:24:29;;;;;;;10.77;9.57;;;;;;;19.40;49.31;99100.97;5040819;28;20043;-74
2022/09/13 07:26:54;;;;;;;8.80;5.00;;;;;;;19.58;49.14;99106.66;5035229;28;20483;-73
2022/09/13 07:29:22;;;;;;;13.00;5.93;;;;;;;19.91;48.27;99110.28;5034944;28;20034;-72
2022/09/13 07:31:50;;;;;;;7.63;4.13;;;;;;;20.02;46.94;99115.94;5032405;28;20025;-72
2022/09/13 07:34:19;;;;;;;5.18;3.80;;;;;;;20.32;47.18;99100.47;5031962;28;20488;-72
2022/09/13 07:36:45;;;;;;;6.82;4.25;;;;;;;20.62;46.54;99119.00;5034812;28;20021;-72
2022/09/13 07:39:12;;;;;;;10.02;4.90;;;;;;;20.65;46.77;99117.38;5036002;28;20065;-73
2022/09/13 07:41:38;;;;;;;10.30;5.40;;;;;;;20.88;46.16;99116.91;5039740;28;20041;-72
2022/09/13 07:44:05;;;;;;;5.15;2.45;;;;;;;20.76;41.76;99109.63;5036509;28;20050;-74
2022/09/13 07:46:32;;;;;;;6.82;3.22;;;;;;;20.84;42.09;99110.41;5038446;28;20389;-72
2022/09/13 07:48:59;;;;;;;4.47;3.40;;;;;;;20.58;41.58;99123.13;5051608;28;20033;-72
2022/09/13 07:51:29;;;;;;;5.30;2.65;;;;;;;20.45;41.97;99115.06;5047843;28;20033;-72
2022/09/13 07:53:57;;;;;;;4.40;2.20;;;;;;;20.37;42.35;99118.31;5049788;28;20515;-73
2022/09/13 07:56:33;;;;;;;3.97;2.42;;;;;;;20.14;43.11;99116.75;5049541;28;20064;-71
2022/09/13 07:59:01;;;;;;;3.03;2.20;;;;;;;20.21;43.35;99125.25;5040832;28;20113;-72
2022/09/13 08:01:35;;;;;;;3.47;3.10;;;;;;;20.14;44.00;99123.25;5045813;28;20044;-71
2022/09/13 08:04:09;;;;;;;8.07;3.00;;;;;;;20.00;44.04;99126.91;5048668;28;20029;-72
2022/09/13 08:06:36;;;;;;;5.75;2.28;;;;;;;19.81;43.99;99108.25;5041454;28;20029;-74
2022/09/13 08:09:03;;;;;;;4.65;2.83;;;;;;;20.09;43.50;99120.00;5047876;28;20029;-71
2022/09/13 08:11:32;;;;;;;2.90;2.40;;;;;;;20.32;43.96;99117.50;5050276;28;20043;-72
2022/09/13 08:13:58;;;;;;;5.40;2.90;;;;;;;20.42;43.46;99106.53;5044698;28;20112;-72
2022/09/13 08:16:25;;;;;;;3.45;2.95;;;;;;;20.68;43.15;99112.91;5040399;28;20170;-75
2022/09/13 08:18:53;;;;;;;4.30;2.95;;;;;;;20.80;41.95;99100.25;5035112;28;20053;-75
2022/09/13 08:21:19;;;;;;;3.10;2.80;;;;;;;21.11;41.48;99107.00;5034236;28;20029;-75
2022/09/13 08:23:45;;;;;;;2.55;2.33;;;;;;;21.32;39.94;99096.72;5042089;28;20032;-75
2022/09/13 08:26:11;;;;;;;2.55;2.35;;;;;;;21.63;40.44;99111.09;5038642;28;20022;-75
2022/09/13 08:28:39;;;;;;;6.70;3.08;;;;;;;21.79;39.29;99116.28;5032711;28;20492;-75
2022/09/13 08:31:07;;;;;;;8.25;2.90;;;;;;;21.66;38.93;99104.59;5042712;28;20021;-75
2022/09/13 08:33:33;;;;;;;2.33;2.10;;;;;;;21.72;38.32;99105.78;5036692;28;20510;-75
2022/09/13 08:35:59;;;;;;;5.72;1.90;;;;;;;21.75;36.52;99098.41;5036589;28;20549;-77
2022/09/13 08:38:25;;;;;;;2.40;1.77;;;;;;;21.46;37.31;99107.19;5037819;28;20029;-70
2022/09/13 08:40:55;;;;;;;5.18;1.70;;;;;;;21.56;37.31;99099.78;5036337;28;20033;-73
2022/09/13 08:43:21;;;;;;;;;;;;;;;21.81;36.34;99108.13;5031525;28;20648;-73
2022/09/13 08:45:54;;;;;;;3.50;1.90;;;;;;;21.70;36.66;99093.97;5042282;28;19917;-76
2022/09/13 08:48:27;;;;;;;1.88;1.70;;;;;;;21.72;35.80;99088.72;5044964;28;20032;-75
2022/09/13 08:51:00;;;;;;;3.00;2.15;;;;;;;21.83;36.37;99107.69;5039494;28;20519;-77
2022/09/13 08:53:29;;;;;;;7.63;1.73;;;;;;;22.00;36.87;99088.81;5033864;28;20040;-74
2022/09/13 08:56:12;;;;;;;3.58;1.88;;;;;;;22.02;35.27;99092.88;5044675;28;20020;-75
2022/09/13 08:59:02;;;;;;;2.03;1.80;;;;;;;22.29;35.50;99100.72;5033636;28;20545;-75
2022/09/13 09:01:46;;;;;;;12.95;1.60;;;;;;;22.21;35.09;99084.13;5035295;28;20032;-75
2022/09/13 09:04:25;;;;;;;3.00;1.85;;;;;;;22.42;35.19;99092.44;5045335;28;20738;-75
2022/09/13 09:07:01;;;;;;;3.73;2.07;;;;;;;22.61;34.68;99095.88;5034663;28;20079;-77
2022/09/13 09:09:33;;;;;;;2.67;1.63;;;;;;;22.46;34.20;99094.41;5041109;28;20035;-76
2022/09/13 09:12:12;;;;;;;8.68;2.42;;;;;;;22.41;35.04;99084.28;5031766;28;20045;-80
2022/09/13 09:14:43;;;;;;;6.93;2.08;;;;;;;22.22;35.00;99092.25;5037582;28;20017;-78
2022/09/13 09:17:34;;;;;;;5.00;2.03;;;;;;;22.28;35.81;99086.91;5037369;28;20024;-81
2022/09/13 09:20:22;;;;;;;2.92;2.25;;;;;;;22.53;36.59;99077.28;5039253;28;20033;-79
2022/09/13 09:22:50;;;;;;;5.50;2.38;;;;;;;22.55;34.83;99078.44;5044435;28;20058;-79
2022/09/13 09:25:15;;;;;;;3.95;1.70;;;;;;;22.63;34.11;99073.47;5032224;28;20029;-80
2022/09/13 09:27:41;;;;;;;1.63;1.52;;;;;;;22.98;33.60;99076.25;5040931;28;20021;-79
2022/09/13 09:30:15;;;;;;;3.60;1.55;;;;;;;23.02;33.47;99087.59;5036241;28;20062;-78
2022/09/13 09:33:06;;;;;;;4.93;1.58;;;;;;;22.85;34.23;99078.88;5032696;28;20049;-72
2022/09/13 09:36:05;;;;;;;2.20;1.88;;;;;;;23.04;32.31;99079.41;5046789;28;20059;-77
2022/09/13 09:38:39;;;;;;;2.78;1.75;;;;;;;22.71;32.33;99091.28;5040551;28;20029;-74
2022/09/13 09:41:22;;;;;;;1.90;1.73;;;;;;;22.73;32.53;99066.00;5043363;28;20029;-75
2022/09/13 09:44:14;;;;;;;4.32;2.17;;;;;;;22.49;33.24;99085.88;5036809;28;20045;-73
2022/09/13 09:46:41;;;;;;;3.72;1.60;;;;;;;22.10;33.33;99079.34;5034179;28;20062;-78
2022/09/13 09:52:55;;;;;;;1.55;1.45;;;;;;;22.01;33.82;99090.44;5028767;28;20040;-75
2022/09/13 09:55:40;;;;;;;2.25;1.95;;;;;;;21.98;33.55;99088.44;5040535;28;20021;-79
2022/09/13 09:58:07;;;;;;;2.17;1.98;;;;;;;22.19;34.08;99090.25;5039245;28;20029;-73
2022/09/13 10:00:38;;;;;;;3.03;1.83;;;;;;;22.03;33.83;99068.06;5038998;28;20476;-82
2022/09/13 10:03:15;;;;;;;1.75;1.65;;;;;;;22.01;34.36;99077.03;5048498;28;20029;-81
2022/09/13 10:05:42;;;;;;;9.43;1.88;;;;;;;21.87;34.00;99074.31;5048549;28;20379;-72
2022/09/13 10:08:32;;;;;;;5.97;3.80;;;;;;;22.22;33.99;99075.19;5040108;28;20544;-74
2022/09/13 10:10:59;;;;;;;10.02;3.80;;;;;;;22.41;34.36;99075.75;5031612;28;20025;-73
2022/09/13 10:13:25;;;;;;;2.63;2.10;;;;;;;22.43;33.96;99067.56;5036303;28;20111;-76
2022/09/13 10:16:26;;;;;;;2.63;2.05;;;;;;;22.39;34.58;99070.50;5039956;28;20025;-76
2022/09/13 10:18:52;;;;;;;4.70;1.80;;;;;;;22.54;33.87;99071.13;5037747;28;20025;-74
2022/09/13 10:21:17;;;;;;;3.33;2.67;;;;;;;22.66;33.21;99063.25;5030095;28;20511;-76
2022/09/13 10:23:45;;;;;;;3.80;1.88;;;;;;;22.60;33.37;99047.88;5039602;28;20547;-75
2022/09/13 10:26:19;;;;;;;5.90;1.70;;;;;;;22.98;33.34;99051.38;5034930;28;20049;-75
2022/09/13 10:29:14;;;;;;;4.25;1.90;;;;;;;22.81;33.14;99058.97;5031720;28;20483;-77
2022/09/13 10:31:43;;;;;;;4.60;2.50;;;;;;;22.79;32.84;99043.53;5037145;28;20029;-76
2022/09/13 10:34:35;;;;;;;5.47;2.17;;;;;;;23.22;32.52;99040.00;5042811;28;20031;-73
2022/09/13 10:37:10;;;;;;;4.07;1.77;;;;;;;23.33;32.40;99042.72;5040768;28;20021;-74
2022/09/13 10:39:36;;;;;;;2.53;2.10;;;;;;;23.35;32.01;99037.38;5041413;28;20037;-73
2022/09/13 10:42:05;;;;;;;1.92;1.60;;;;;;;23.46;31.83;99027.84;5033096;28;20483;-80
2022/09/13 10:44:45;;;;;;;5.70;1.80;;;;;;;23.55;30.69;99033.81;5048609;28;20122;-79
2022/09/13 10:47:22;;;;;;;10.93;2.95;;;;;;;23.13;31.01;99032.00;5046743;28;20045;-77
2022/09/13 10:49:53;;;;;;;2.55;1.60;;;;;;;22.92;31.72;99023.78;5041113;28;20483;-75
2022/09/13 10:52:55;;;;;;;4.28;2.20;;;;;;;23.21;31.82;99018.44;5042871;28;20364;-75
2022/09/13 10:55:21;;;;;;;4.10;1.73;;;;;;;23.47;31.25;99021.72;5034444;28;20047;-75
2022/09/13 10:57:49;;;;;;;3.70;1.65;;;;;;;23.76;30.92;99009.75;5040753;28;20025;-74
2022/09/13 11:00:21;;;;;;;9.32;1.48;;;;;;;23.70;30.79;99006.59;5044665;28;20032;-75
2022/09/13 11:03:24;;;;;;;1.85;1.75;;;;;;;23.86;29.91;99016.50;5034195;28;20492;-75
2022/09/13 11:06:13;;;;;;;1.52;1.42;;;;;;;24.27;28.81;99008.78;5035559;28;20035;-74
2022/09/13 11:08:47;;;;;;;2.17;1.50;;;;;;;24.32;29.14;99013.16;5033692;28;20033;-73
2022/09/13 11:11:13;;;;;;;2.53;1.40;;;;;;;24.41;30.38;99013.38;5036176;28;20033;-72
2022/09/13 11:14:04;;;;;;;3.00;1.33;;;;;;;24.35;30.50;99018.00;5035769;28;20116;-71
2022/09/13 11:16:41;;;;;;;2.38;1.50;;;;;;;24.31;30.68;98998.06;5038131;28;20169;-72
2022/09/13 11:19:22;;;;;;;2.35;1.45;;;;;;;23.94;29.96;99015.13;5041604;28;20102;-71
2022/09/13 11:22:16;;;;;;;4.30;1.75;;;;;;;23.66;31.32;99013.63;5038261;28;20059;-70
2022/09/13 11:24:50;;;;;;;3.40;1.83;;;;;;;23.47;32.35;99013.16;5043121;28;20028;-72
2022/09/13 11:27:49;;;;;;;1.95;1.65;;;;;;;23.35;33.32;99019.44;5041188;28;20049;-71
2022/09/13 11:30:18;;;;;;;3.75;1.63;;;;;;;23.27;32.33;99015.91;5043550;28;20033;-71
2022/09/13 11:33:19;;;;;;;5.65;2.83;;;;;;;23.55;32.35;99010.97;5035239;28;20575;-71
2022/09/13 11:36:14;;;;;;;1.67;1.58;;;;;;;23.66;32.20;99005.06;5037226;28;20029;-70
2022/09/13 11:39:01;;;;;;;2.72;1.90;;;;;;;23.44;30.67;98998.94;5047096;28;20120;-72
2022/09/13 11:41:53;;;;;;;7.15;2.15;;;;;;;24.04;31.07;98998.25;5041709;28;20585;-72
2022/09/13 11:44:47;;;;;;;43.63;6.75;;;;;;;24.18;28.87;98991.41;5036916;28;20052;-72
2022/09/13 11:47:15;;;;;;;2.95;2.00;;;;;;;24.07;29.14;98997.38;5045709;28;20037;-73
2022/09/13 11:49:57;;;;;;;1.73;1.60;;;;;;;23.65;29.45;98997.75;5047639;28;20032;-72
2022/09/13 11:52:26;;;;;;;7.82;1.90;;;;;;;23.42;30.49;98985.09;5052778;28;20036;-73
2022/09/13 11:55:14;;;;;;;1.50;1.40;;;;;;;23.69;30.59;98987.03;5050391;28;20033;-71
2022/09/13 11:57:45;;;;;;;3.75;1.75;;;;;;;23.96;30.93;98989.00;5033905;28;20040;-72
2022/09/13 12:00:24;;;;;;;1.83;1.73;;;;;;;24.13;30.78;98989.09;5038557;28;20038;-72